Time;durP1;ratioP1;P1;durP2;ratioP2;P2;SDS_P1;SDS_P2;PMS_P1;PMS_P2;Temp;Humidity;BMP_temperature;BMP_pressure;BME280_temperature;BME280_humidity;BME280_pressure;Samples;Min_cycle;Max_cycle;Signal;HPM_P1;HPM_P2
2022/09/03 00:00:02;;;;;;;8.00;4.60;;;;;;;13.82;49.13;100195.23;104895;1274;25333;-56
2022/09/03 00:02:37;;;;;;;8.00;4.70;;;;;;;13.81;49.39;100199.05;109253;1274;138287;-57
2022/09/03 00:05:24;;;;;;;7.50;3.80;;;;;;;13.80;49.14;100199.03;109394;1274;22455;-57
2022/09/03 00:08:09;;;;;;;8.50;4.50;;;;;;;13.80;49.00;100198.33;109362;1274;22570;-57
2022/09/03 00:10:54;;;;;;;6.80;3.80;;;;;;;13.79;48.89;100201.05;109303;1274;138479;-57
2022/09/03 00:13:28;;;;;;;8.60;4.50;;;;;;;13.80;49.05;100199.80;109265;1274;23270;-57
2022/09/03 00:15:55;;;;;;;7.10;3.80;;;;;;;13.80;49.44;100205.89;109174;1274;138002;-57
2022/09/03 00:18:24;;;;;;;6.60;4.30;;;;;;;13.82;49.27;100204.48;109362;1274;22607;-56
2022/09/03 00:21:07;;;;;;;6.20;4.30;;;;;;;13.82;49.36;100201.46;109168;1274;139286;-57
2022/09/03 00:23:36;;;;;;;6.50;4.10;;;;;;;13.83;49.42;100200.81;109345;1275;22499;-57
2022/09/03 00:26:12;;;;;;;8.50;4.20;;;;;;;13.83;49.38;100203.07;109250;1274;23255;-57
2022/09/03 00:28:48;;;;;;;6.90;3.70;;;;;;;13.84;49.10;100205.80;109121;1275;138622;-56
2022/09/03 00:31:28;;;;;;;7.90;4.10;;;;;;;13.83;48.86;100203.66;109277;1273;23478;-57
2022/09/03 00:33:58;;;;;;;6.70;3.40;;;;;;;13.84;48.96;100203.30;109018;1274;138902;-57
2022/09/03 00:36:36;;;;;;;7.10;3.90;;;;;;;13.85;48.82;100204.77;109247;1274;22624;-57
2022/09/03 00:39:11;;;;;;;7.40;3.80;;;;;;;13.85;49.10;100203.99;109340;1274;138141;-57
2022/09/03 00:42:30;;;;;;;6.10;3.70;;;;;;;13.86;49.05;100199.23;109361;1274;22477;-54
2022/09/03 00:45:19;;;;;;;4.80;3.60;;;;;;;13.86;48.96;100201.47;108608;1281;139969;-54
2022/09/03 00:47:48;;;;;;;4.70;3.60;;;;;;;13.86;48.83;100202.67;108652;1282;22486;-53
2022/09/03 00:50:33;;;;;;;7.60;4.10;;;;;;;13.86;48.94;100198.95;108622;1282;22526;-54
2022/09/03 00:53:30;;;;;;;5.90;3.50;;;;;;;13.87;48.58;100201.26;108656;1282;23447;-54
2022/09/03 00:56:31;;;;;;;5.50;3.50;;;;;;;13.86;48.42;100201.73;108642;1282;22447;-54
2022/09/03 00:59:21;;;;;;;8.10;4.10;;;;;;;13.86;48.60;100203.71;108256;1286;22606;-55
2022/09/03 01:01:50;;;;;;;8.90;3.70;;;;;;;13.86;48.86;100206.13;108255;1286;22500;-54
2022/09/03 01:04:41;;;;;;;7.50;3.10;;;;;;;13.85;48.98;100207.60;108105;1286;138844;-54
2022/09/03 01:07:23;;;;;;;6.20;3.40;;;;;;;13.85;49.07;100208.21;108012;1287;22446;-54
2022/09/03 01:10:31;;;;;;;7.80;4.20;;;;;;;13.86;48.84;100208.15;108187;1286;138443;-53
2022/09/03 01:13:03;;;;;;;5.70;3.40;;;;;;;13.85;48.80;100209.85;107514;1291;23578;-54
2022/09/03 01:16:02;;;;;;;7.60;3.20;;;;;;;13.85;48.82;100203.94;107457;1290;138496;-54
2022/09/03 01:18:51;;;;;;;7.00;3.20;;;;;;;13.86;48.86;100205.03;107709;1289;22469;-54
2022/09/03 01:21:20;;;;;;;4.90;3.50;;;;;;;13.85;48.82;100205.14;107716;1288;137695;-54
2022/09/03 01:23:51;;;;;;;8.60;3.20;;;;;;;13.84;48.63;100205.92;107951;1287;22748;-54
2022/09/03 01:26:27;;;;;;;6.20;3.60;;;;;;;13.84;48.70;100208.16;107921;1288;22450;-54
2022/09/03 01:29:17;;;;;;;4.80;3.10;;;;;;;13.84;48.45;100207.99;107982;1287;22673;-54
2022/09/03 01:32:08;;;;;;;5.70;3.10;;;;;;;13.83;48.34;100210.95;107493;1290;22508;-54
2022/09/03 01:34:56;;;;;;;8.60;3.20;;;;;;;13.82;48.42;100209.63;107375;1291;137812;-54
2022/09/03 01:37:27;;;;;;;3.90;2.80;;;;;;;13.80;48.16;100208.52;107910;1287;22500;-54
2022/09/03 01:40:19;;;;;;;6.70;3.40;;;;;;;13.80;48.36;100210.05;107810;1287;137560;-53
2022/09/03 01:43:02;;;;;;;6.80;3.20;;;;;;;13.80;48.62;100211.31;107939;1287;22554;-53
2022/09/03 01:45:31;;;;;;;6.00;3.10;;;;;;;13.78;48.58;100209.70;108004;1286;138679;-53
2022/09/03 01:48:04;;;;;;;6.80;3.20;;;;;;;13.78;48.41;100211.06;107893;1287;22482;-53
2022/09/03 01:50:56;;;;;;;6.40;3.40;;;;;;;13.76;48.27;100212.41;108428;1281;139342;-54
2022/09/03 01:53:37;;;;;;;4.60;2.80;;;;;;;13.74;48.46;100211.73;108416;1281;22457;-53
2022/09/03 01:56:16;;;;;;;6.50;3.80;;;;;;;13.72;48.46;100212.00;108765;1281;22517;-54
2022/09/03 01:58:48;;;;;;;9.90;3.70;;;;;;;13.71;48.24;100208.70;108337;1281;138348;-54
2022/09/03 02:01:22;;;;;;;4.20;3.10;;;;;;;13.70;48.31;100207.66;108795;1280;22488;-53
2022/09/03 02:03:49;;;;;;;5.00;3.30;;;;;;;13.69;48.41;100207.29;108388;1281;138723;-53
2022/09/03 02:06:19;;;;;;;5.40;3.20;;;;;;;13.69;48.43;100209.14;108581;1281;23694;-53
2022/09/03 02:08:46;;;;;;;6.50;3.30;;;;;;;13.68;48.38;100205.58;108684;1273;140215;-53
2022/09/03 02:11:13;;;;;;;7.00;3.80;;;;;;;13.68;48.67;100206.67;108292;1274;1614078;-53
2022/09/03 02:14:52;;;;;;;7.00;3.20;;;;;;;13.68;48.53;100206.83;101393;1309;548657;-55
2022/09/03 02:17:18;;;;;;;9.50;4.30;;;;;;;13.66;48.59;100204.63;103957;1287;23983;-54
2022/09/03 02:19:45;;;;;;;6.40;3.60;;;;;;;13.65;48.67;100204.02;103967;1287;24308;-54
2022/09/03 02:22:12;;;;;;;;;;;;;;;13.63;48.81;100203.02;103855;1287;137829;-54
2022/09/03 02:24:38;;;;;;;6.20;3.40;;;;;;;13.60;48.81;100203.73;103915;1288;23949;-54
2022/09/03 02:27:05;;;;;;;6.90;3.00;;;;;;;13.57;48.78;100209.23;102808;1287;1402720;-55
2022/09/03 02:29:33;;;;;;;5.80;3.30;;;;;;;13.54;48.99;100208.70;104152;1286;22921;-54
2022/09/03 02:31:59;;;;;;;;;;;;;;;13.52;49.11;100209.33;104111;1286;23013;-56
2022/09/03 02:34:26;;;;;;;5.70;3.40;;;;;;;13.49;49.14;100207.76;104005;1284;123603;-54
2022/09/03 02:36:53;;;;;;;7.90;4.00;;;;;;;13.45;49.38;100208.48;104182;1284;25085;-54
2022/09/03 02:39:20;;;;;;;7.00;4.00;;;;;;;13.42;49.42;100209.16;108370;1284;138168;-54
2022/09/03 02:41:52;;;;;;;;;;;;;;;13.40;49.53;100206.32;108998;1280;22447;-54
2022/09/03 02:44:40;;;;;;;9.00;3.80;;;;;;;13.38;49.60;100209.03;108653;1282;22455;-55
2022/09/03 02:47:07;;;;;;;6.50;3.60;;;;;;;13.35;49.78;100214.20;108629;1282;22632;-54
2022/09/03 02:49:34;;;;;;;6.20;3.60;;;;;;;13.33;49.70;100215.98;109098;1277;22452;-54
2022/09/03 02:52:08;;;;;;;9.70;4.10;;;;;;;13.32;49.85;100214.93;109065;1277;138170;-55
2022/09/03 02:54:38;;;;;;;6.80;3.40;;;;;;;13.31;49.80;100217.45;109270;1277;23326;-54
2022/09/03 02:57:08;;;;;;;5.60;3.50;;;;;;;13.31;50.03;100216.95;109009;1277;138247;-54
2022/09/03 02:59:35;;;;;;;8.40;3.90;;;;;;;13.31;50.13;100211.64;109186;1277;22560;-54
2022/09/03 03:02:02;;;;;;;5.20;3.00;;;;;;;13.31;50.16;100209.45;109168;1277;22501;-55
2022/09/03 03:04:30;;;;;;;4.50;3.20;;;;;;;13.31;50.31;100213.12;108988;1277;137086;-54
2022/09/03 03:06:57;;;;;;;;;;;;;;;13.32;50.15;100215.58;109003;1277;22454;-54
2022/09/03 03:09:24;;;;;;;8.00;4.30;;;;;;;13.32;50.17;100216.84;109210;1277;125258;-54
2022/09/03 03:11:52;;;;;;;4.90;3.30;;;;;;;13.32;50.42;100214.23;109151;1277;22399;-54
2022/09/03 03:14:19;;;;;;;5.80;3.50;;;;;;;13.32;50.53;100215.59;109170;1277;22446;-54
2022/09/03 03:16:45;;;;;;;;;;;;;;;13.32;50.28;100217.45;109238;1277;136868;-54
2022/09/03 03:19:12;;;;;;;9.30;4.20;;;;;;;13.32;50.27;100221.67;109275;1276;22660;-54
2022/09/03 03:21:39;;;;;;;7.50;4.40;;;;;;;13.32;50.37;100224.45;109154;1277;138107;-54
2022/09/03 03:24:06;;;;;;;8.10;4.40;;;;;;;13.31;50.57;100225.27;109221;1276;23736;-54
2022/09/03 03:26:33;;;;;;;5.90;3.50;;;;;;;13.32;50.68;100229.16;109101;1277;137687;-55
2022/09/03 03:29:00;;;;;;;;;;;;;;;13.33;50.90;100231.31;109180;1278;23685;-54
2022/09/03 03:31:26;;;;;;;5.40;3.40;;;;;;;13.34;51.15;100232.91;109133;1277;22413;-54
2022/09/03 03:33:53;;;;;;;;;;;;;;;13.36;51.04;100232.02;109096;1277;139409;-54
2022/09/03 03:36:20;;;;;;;8.30;3.70;;;;;;;13.37;51.08;100235.46;109334;1276;22478;-54
2022/09/03 03:38:47;;;;;;;8.70;4.40;;;;;;;13.38;51.20;100237.23;109209;1276;138509;-54
2022/09/03 03:41:19;;;;;;;7.80;4.70;;;;;;;13.40;51.48;100232.82;109287;1276;22444;-54
2022/09/03 03:43:46;;;;;;;7.90;4.10;;;;;;;13.41;51.31;100234.30;109256;1276;22444;-54
2022/09/03 03:46:13;;;;;;;10.60;5.50;;;;;;;13.42;51.63;100235.05;109179;1276;137956;-54
2022/09/03 03:48:40;;;;;;;9.00;4.30;;;;;;;13.42;51.73;100233.64;109337;1276;22490;-54
2022/09/03 03:51:08;;;;;;;8.10;4.40;;;;;;;13.42;51.67;100236.76;109246;1275;138631;-54
2022/09/03 03:53:38;;;;;;;6.20;3.80;;;;;;;13.42;52.09;100244.52;109260;1276;23258;-55
2022/09/03 03:56:06;;;;;;;5.90;3.90;;;;;;;13.44;52.53;100259.61;109329;1276;22467;-55
2022/09/03 03:58:33;;;;;;;8.70;4.20;;;;;;;13.46;52.38;100268.01;109064;1277;137450;-54
2022/09/03 04:01:08;;;;;;;9.00;4.70;;;;;;;13.48;52.58;100268.14;109348;1276;22445;-55
2022/09/03 04:03:35;;;;;;;11.00;4.80;;;;;;;13.48;52.53;100262.56;109124;1276;138137;-54
2022/09/03 04:06:03;;;;;;;7.30;5.40;;;;;;;13.49;53.04;100263.77;109362;1276;22434;-54
2022/09/03 04:08:30;;;;;;;7.70;4.30;;;;;;;13.49;53.22;100264.31;109220;1276;137203;-55
2022/09/03 04:11:00;;;;;;;6.90;4.60;;;;;;;13.49;53.29;100261.20;109296;1277;22443;-55
2022/09/03 04:13:29;;;;;;;10.30;4.50;;;;;;;13.51;53.15;100261.71;109348;1277;22592;-55
2022/09/03 04:16:03;;;;;;;7.70;4.20;;;;;;;13.52;53.28;100260.58;109256;1276;138316;-55
2022/09/03 04:18:30;;;;;;;9.80;5.10;;;;;;;13.53;53.74;100267.77;109127;1277;22727;-54
2022/09/03 04:21:03;;;;;;;8.30;5.20;;;;;;;13.53;53.91;100267.17;109229;1276;138319;-54
2022/09/03 04:23:37;;;;;;;10.90;4.60;;;;;;;13.54;54.25;100265.64;109314;1276;22417;-55
2022/09/03 04:26:04;;;;;;;9.20;5.00;;;;;;;13.56;54.61;100270.67;109282;1276;22453;-54
2022/09/03 04:28:31;;;;;;;14.80;5.60;;;;;;;13.56;54.12;100263.89;109213;1276;138385;-54
2022/09/03 04:31:02;;;;;;;;;;;;;;;13.56;53.88;100260.88;109025;1279;23270;-55
2022/09/03 04:33:30;;;;;;;9.60;4.60;;;;;;;13.57;54.58;100264.94;109020;1278;124558;-55
2022/09/03 04:36:17;;;;;;;10.90;4.40;;;;;;;13.58;54.70;100264.77;109168;1278;22531;-54
2022/09/03 04:38:45;;;;;;;10.80;4.30;;;;;;;13.58;54.63;100260.89;109012;1278;137962;-55
2022/09/03 04:41:16;;;;;;;10.70;5.30;;;;;;;13.59;54.72;100263.69;109282;1277;23268;-56
2022/09/03 04:43:43;;;;;;;7.40;5.00;;;;;;;13.60;54.61;100269.67;109171;1277;22409;-56
2022/09/03 04:46:12;;;;;;;7.90;4.20;;;;;;;13.61;54.95;100268.81;109245;1276;137100;-56
2022/09/03 04:48:46;;;;;;;11.20;4.90;;;;;;;13.63;54.80;100264.13;109186;1277;23148;-56
2022/09/03 04:51:15;;;;;;;9.30;4.80;;;;;;;13.64;54.58;100261.23;109200;1276;137271;-56
2022/09/03 04:53:47;;;;;;;11.50;5.60;;;;;;;13.64;54.35;100262.55;109311;1276;22646;-56
2022/09/03 04:56:16;;;;;;;11.30;4.60;;;;;;;13.66;54.03;100263.27;109296;1276;22508;-56
2022/09/03 04:58:43;;;;;;;9.30;4.80;;;;;;;13.65;53.79;100263.27;109197;1276;137891;-56
2022/09/03 05:01:15;;;;;;;7.30;4.90;;;;;;;13.66;53.58;100267.02;109271;1276;22432;-56
2022/09/03 05:03:43;;;;;;;9.50;4.30;;;;;;;13.66;53.44;100262.84;109186;1277;137905;-56
2022/09/03 05:06:09;;;;;;;8.50;3.80;;;;;;;13.66;53.72;100260.87;109326;1276;22430;-56
2022/09/03 05:08:39;;;;;;;8.80;4.80;;;;;;;13.66;53.55;100263.34;109209;1276;138366;-56
2022/09/03 05:11:06;;;;;;;8.90;4.80;;;;;;;13.68;53.38;100263.24;109323;1276;22548;-56
2022/09/03 05:13:33;;;;;;;8.30;3.90;;;;;;;13.69;53.71;100261.89;109329;1277;23279;-56
2022/09/03 05:16:03;;;;;;;13.30;4.00;;;;;;;13.70;53.81;100255.98;109205;1277;138521;-56
2022/09/03 05:18:30;;;;;;;6.60;4.40;;;;;;;13.71;54.22;100254.88;109286;1276;22798;-56
2022/09/03 05:21:01;;;;;;;6.20;4.30;;;;;;;13.73;55.27;100256.15;109155;1275;138431;-56
2022/09/03 05:23:29;;;;;;;7.40;4.00;;;;;;;13.75;54.90;100258.31;109218;1277;22458;-56
2022/09/03 05:26:07;;;;;;;5.90;3.80;;;;;;;13.75;55.19;100260.07;109290;1277;22528;-56
2022/09/03 05:28:38;;;;;;;6.60;4.20;;;;;;;13.77;55.13;100256.15;109005;1276;138543;-56
2022/09/03 05:31:16;;;;;;;9.60;4.50;;;;;;;13.80;55.33;100259.52;109259;1277;22592;-56
2022/09/03 05:33:44;;;;;;;5.80;3.90;;;;;;;13.82;54.93;100258.16;109244;1276;137769;-56
2022/09/03 05:36:15;;;;;;;14.80;4.80;;;;;;;13.83;55.17;100253.85;109284;1276;22436;-56
2022/09/03 05:38:42;;;;;;;7.80;4.20;;;;;;;13.85;55.36;100254.51;109249;1276;138645;-56
2022/09/03 05:41:09;;;;;;;;;;;;;;;13.86;55.33;100255.22;109351;1276;22470;-57
2022/09/03 05:43:36;;;;;;;10.50;4.60;;;;;;;13.87;55.27;100261.04;109297;1276;22488;-57
2022/09/03 05:46:06;;;;;;;;;;;;;;;13.88;55.09;100259.34;109170;1277;138892;-56
2022/09/03 05:48:34;;;;;;;11.50;4.20;;;;;;;13.88;55.21;100260.38;109302;1277;23277;-57
2022/09/03 05:51:15;;;;;;;7.90;4.80;;;;;;;13.87;55.03;100261.91;109043;1277;139769;-57
2022/09/03 05:53:43;;;;;;;7.50;4.80;;;;;;;13.89;54.93;100262.42;109256;1276;23222;-58
2022/09/03 05:56:11;;;;;;;7.60;4.70;;;;;;;13.91;55.63;100265.63;109236;1277;22555;-57
2022/09/03 05:58:39;;;;;;;8.90;4.40;;;;;;;13.93;55.29;100269.86;109155;1276;138241;-57
2022/09/03 06:01:13;;;;;;;9.70;4.60;;;;;;;13.95;55.13;100262.48;109277;1276;22468;-57
2022/09/03 06:03:40;;;;;;;10.00;5.20;;;;;;;13.97;54.86;100261.02;109240;1276;139543;-57
2022/09/03 06:06:07;;;;;;;14.20;5.80;;;;;;;13.99;54.33;100253.59;109100;1277;23590;-57
2022/09/03 06:08:36;;;;;;;9.10;4.90;;;;;;;14.01;54.11;100253.52;109019;1277;137831;-57
2022/09/03 06:11:03;;;;;;;8.00;5.30;;;;;;;14.03;53.97;100251.85;109282;1276;22425;-57
2022/09/03 06:13:30;;;;;;;10.40;5.50;;;;;;;14.05;53.78;100248.04;109106;1277;22468;-57
2022/09/03 06:16:00;;;;;;;9.60;5.50;;;;;;;14.08;53.53;100243.34;109151;1277;137867;-57
2022/09/03 06:18:28;;;;;;;10.70;5.20;;;;;;;14.10;53.06;100245.95;109130;1277;22537;-57
2022/09/03 06:20:55;;;;;;;13.70;5.60;;;;;;;14.12;53.85;100248.59;109105;1277;137744;-57
2022/09/03 06:23:22;;;;;;;10.70;5.30;;;;;;;14.18;53.58;100246.47;109296;1276;22448;-57
2022/09/03 06:26:19;;;;;;;11.60;5.60;;;;;;;14.24;53.80;100248.23;109146;1277;22969;-57
2022/09/03 06:28:47;;;;;;;12.40;6.30;;;;;;;14.32;53.58;100253.96;108988;1278;138519;-57
2022/09/03 06:31:15;;;;;;;13.30;6.00;;;;;;;14.39;53.44;100249.48;109519;1272;22433;-57
2022/09/03 06:33:42;;;;;;;11.40;6.10;;;;;;;14.45;53.05;100254.45;109297;1274;139036;-57
2022/09/03 06:36:12;;;;;;;10.30;6.10;;;;;;;14.51;52.67;100251.70;109404;1274;23222;-56
2022/09/03 06:38:38;;;;;;;10.40;5.30;;;;;;;14.55;52.46;100257.55;109367;1273;138410;-57
2022/09/03 06:41:10;;;;;;;12.70;5.70;;;;;;;14.57;52.18;100254.59;105688;1274;25418;-56
2022/09/03 06:43:38;;;;;;;8.80;5.40;;;;;;;14.59;52.04;100247.12;109467;1274;23489;-57
2022/09/03 06:46:12;;;;;;;10.40;6.10;;;;;;;14.63;52.02;100249.56;109257;1274;140624;-57
2022/09/03 06:48:42;;;;;;;9.30;5.50;;;;;;;14.68;51.91;100248.34;109294;1274;23677;-57
2022/09/03 06:51:16;;;;;;;10.20;5.30;;;;;;;14.74;51.95;100255.92;109253;1273;138378;-56
2022/09/03 06:53:45;;;;;;;10.20;5.70;;;;;;;14.82;52.09;100256.95;109457;1273;22529;-57
2022/09/03 06:56:13;;;;;;;13.20;5.90;;;;;;;14.91;51.81;100252.87;109577;1273;22440;-57
2022/09/03 06:58:42;;;;;;;11.70;5.80;;;;;;;14.99;51.42;100244.34;109478;1272;138520;-56
2022/09/03 07:01:13;;;;;;;18.30;6.80;;;;;;;15.07;51.66;100242.93;109543;1273;22562;-57
2022/09/03 07:03:41;;;;;;;10.00;5.30;;;;;;;15.16;51.76;100249.49;109421;1274;138722;-57
2022/09/03 07:06:09;;;;;;;7.60;5.00;;;;;;;15.25;51.13;100244.05;109529;1272;22438;-57
2022/09/03 07:08:36;;;;;;;12.00;4.40;;;;;;;15.32;50.79;100240.04;109406;1273;139165;-57
2022/09/03 07:11:07;;;;;;;12.00;5.20;;;;;;;15.39;50.72;100244.00;109589;1273;22505;-57
2022/09/03 07:13:40;;;;;;;6.70;4.30;;;;;;;15.42;50.37;100250.51;109466;1273;22511;-57
2022/09/03 07:16:08;;;;;;;11.80;5.20;;;;;;;15.44;50.12;100251.41;109483;1273;137639;-57
2022/09/03 07:18:35;;;;;;;9.70;5.30;;;;;;;15.47;50.06;100251.54;109586;1273;22496;-57
2022/09/03 07:21:09;;;;;;;13.60;4.90;;;;;;;15.48;50.26;100251.48;109483;1274;139916;-56
2022/09/03 07:23:36;;;;;;;7.10;4.50;;;;;;;15.52;49.98;100250.52;109415;1274;22571;-57
2022/09/03 07:26:05;;;;;;;9.40;4.90;;;;;;;15.57;50.04;100253.73;109317;1274;22483;-57
2022/09/03 07:28:31;;;;;;;7.50;4.20;;;;;;;15.61;50.13;100257.40;109484;1273;139115;-57
2022/09/03 07:31:19;;;;;;;8.40;4.90;;;;;;;15.65;49.30;100259.84;109447;1273;22442;-57
2022/09/03 07:33:46;;;;;;;17.30;5.40;;;;;;;15.66;49.05;100256.27;109481;1273;138017;-57
2022/09/03 07:36:16;;;;;;;11.10;5.70;;;;;;;15.68;49.18;100260.73;109563;1273;22225;-57
2022/09/03 07:38:43;;;;;;;10.40;5.20;;;;;;;15.70;49.34;100261.34;109356;1274;138100;-57
2022/09/03 07:41:11;;;;;;;10.10;5.10;;;;;;;15.72;49.38;100257.77;109581;1273;22517;-57
2022/09/03 07:43:47;;;;;;;9.90;4.80;;;;;;;15.78;49.62;100260.39;109478;1274;22458;-57
2022/09/03 07:46:23;;;;;;;7.50;4.40;;;;;;;15.88;50.23;100260.29;109471;1273;137848;-59
2022/09/03 07:48:51;;;;;;;6.80;3.80;;;;;;;15.97;49.61;100261.77;109596;1272;23211;-58
2022/09/03 07:51:19;;;;;;;8.00;4.10;;;;;;;16.03;49.26;100260.89;109480;1273;138476;-57
2022/09/03 07:53:46;;;;;;;10.50;4.50;;;;;;;16.10;49.38;100252.52;109552;1273;22444;-57
2022/09/03 07:56:12;;;;;;;7.50;4.60;;;;;;;16.18;49.35;100259.16;109565;1272;22436;-57
2022/09/03 07:58:41;;;;;;;11.30;4.50;;;;;;;16.27;48.47;100256.74;109396;1273;138061;-57
2022/09/03 08:01:11;;;;;;;8.40;4.00;;;;;;;16.32;48.98;100255.08;109542;1273;23507;-57
2022/09/03 08:03:42;;;;;;;8.70;3.70;;;;;;;16.38;48.95;100255.95;109315;1274;137376;-57
2022/09/03 08:06:09;;;;;;;8.70;4.10;;;;;;;16.43;48.59;100251.92;109494;1272;22531;-57
2022/09/03 08:08:36;;;;;;;;;;;;;;;16.49;48.80;100251.89;109325;1273;138775;-57
2022/09/03 08:11:04;;;;;;;12.50;5.10;;;;;;;16.54;48.81;100252.94;109514;1273;22468;-57
2022/09/03 08:13:31;;;;;;;7.60;3.40;;;;;;;16.59;48.82;100255.77;109492;1271;22387;-57
2022/09/03 08:16:00;;;;;;;9.50;4.10;;;;;;;16.64;48.62;100256.50;109409;1273;138503;-57
2022/09/03 08:18:30;;;;;;;8.10;3.80;;;;;;;16.70;48.40;100253.80;109246;1273;22478;-57
2022/09/03 08:20:58;;;;;;;6.00;4.00;;;;;;;16.75;47.51;100249.59;109438;1273;138716;-57
2022/09/03 08:23:25;;;;;;;5.70;3.70;;;;;;;16.77;47.05;100249.41;109397;1274;22480;-58
2022/09/03 08:26:01;;;;;;;6.90;4.00;;;;;;;16.77;46.85;100254.81;109519;1273;22482;-56
2022/09/03 08:28:29;;;;;;;5.10;3.70;;;;;;;16.78;46.70;100248.38;109292;1274;137699;-57
2022/09/03 08:30:55;;;;;;;5.90;4.10;;;;;;;16.77;46.45;100250.80;109411;1274;22410;-56
2022/09/03 08:33:35;;;;;;;5.90;3.60;;;;;;;16.78;46.81;100258.38;109297;1273;137985;-57
2022/09/03 08:36:28;;;;;;;6.90;4.00;;;;;;;16.77;46.44;100255.41;109338;1274;22528;-57
2022/09/03 08:38:56;;;;;;;7.90;4.30;;;;;;;16.75;46.56;100248.42;109176;1274;137985;-57
2022/09/03 08:41:50;;;;;;;10.80;4.30;;;;;;;16.75;46.89;100241.48;109396;1274;22477;-56
2022/09/03 08:44:35;;;;;;;13.20;3.90;;;;;;;16.79;47.03;100234.16;109519;1273;23354;-56
2022/09/03 08:47:16;;;;;;;7.50;4.10;;;;;;;16.84;46.84;100229.75;109415;1274;22264;-56
2022/09/03 08:49:47;;;;;;;13.20;3.60;;;;;;;16.87;46.70;100226.70;109279;1274;23258;-57
2022/09/03 08:52:32;;;;;;;8.70;3.00;;;;;;;16.92;46.59;100220.56;109241;1274;137674;-58
2022/09/03 08:55:11;;;;;;;8.20;3.40;;;;;;;17.00;46.28;100220.21;109400;1274;22479;-58
2022/09/03 08:57:45;;;;;;;7.70;2.90;;;;;;;17.05;45.48;100217.95;109225;1274;137819;-56
2022/09/03 09:00:12;;;;;;;6.40;2.50;;;;;;;17.08;44.35;100215.63;109501;1273;22426;-56
2022/09/03 09:02:47;;;;;;;5.90;2.20;;;;;;;17.09;44.05;100213.86;109399;1273;138231;-57
2022/09/03 09:05:29;;;;;;;3.90;1.60;;;;;;;17.11;44.04;100213.91;109376;1274;23275;-57
2022/09/03 09:08:12;;;;;;;6.10;2.70;;;;;;;17.12;43.36;100213.41;109386;1274;22406;-57
2022/09/03 09:10:44;;;;;;;4.60;2.50;;;;;;;17.14;43.73;100216.00;109171;1274;138872;-57
2022/09/03 09:13:31;;;;;;;7.10;1.90;;;;;;;17.15;43.93;100215.95;109457;1273;22452;-57
2022/09/03 09:16:03;;;;;;;6.60;2.50;;;;;;;17.18;44.02;100210.73;109400;1273;138104;-57
2022/09/03 09:18:40;;;;;;;3.60;2.50;;;;;;;17.22;43.82;100207.67;109388;1274;23004;-58
2022/09/03 09:21:23;;;;;;;4.50;2.40;;;;;;;17.26;43.53;100203.48;109185;1274;137568;-56
2022/09/03 09:23:53;;;;;;;6.80;2.20;;;;;;;17.29;43.61;100207.86;109206;1274;22447;-57
2022/09/03 09:26:21;;;;;;;5.50;2.70;;;;;;;17.30;43.31;100210.93;109467;1270;23433;-57
2022/09/03 09:28:56;;;;;;;16.20;3.50;;;;;;;17.31;43.69;100211.42;109419;1272;138321;-57
2022/09/03 09:31:23;;;;;;;4.60;2.70;;;;;;;17.33;44.30;100220.54;109307;1274;22547;-57
2022/09/03 09:33:51;;;;;;;5.80;2.70;;;;;;;17.36;44.37;100220.36;109452;1273;139349;-56
2022/09/03 09:36:18;;;;;;;4.20;2.80;;;;;;;17.37;43.56;100221.63;109520;1272;22254;-56
2022/09/03 09:38:47;;;;;;;4.00;2.60;;;;;;;17.36;43.43;100219.64;109392;1273;138698;-56
2022/09/03 09:41:18;;;;;;;4.50;3.10;;;;;;;17.32;43.53;100216.25;109536;1271;22459;-58
2022/09/03 09:43:49;;;;;;;4.20;2.20;;;;;;;17.30;43.40;100213.48;109535;1272;22451;-57
2022/09/03 09:46:20;;;;;;;6.00;2.30;;;;;;;17.28;43.79;100215.25;109451;1273;138608;-56
2022/09/03 09:48:54;;;;;;;6.80;2.70;;;;;;;17.30;44.22;100220.19;109526;1272;22427;-56
2022/09/03 09:51:29;;;;;;;4.90;3.00;;;;;;;17.34;43.96;100212.39;109300;1272;137946;-56
2022/09/03 09:54:00;;;;;;;6.80;4.00;;;;;;;17.38;44.10;100213.25;109400;1274;23124;-57
2022/09/03 09:56:26;;;;;;;12.70;3.30;;;;;;;17.42;43.94;100212.13;109433;1271;137549;-56
2022/09/03 09:59:03;;;;;;;7.60;2.70;;;;;;;17.44;43.26;100218.51;109277;1274;23176;-58
2022/09/03 10:01:31;;;;;;;8.30;2.90;;;;;;;17.45;43.69;100215.30;109558;1273;22434;-56
2022/09/03 10:03:59;;;;;;;8.30;3.60;;;;;;;17.47;43.55;100221.48;109427;1273;138680;-56
2022/09/03 10:09:17;;;;;;;6.80;3.40;;;;;;;17.38;43.15;100220.96;109413;1273;138844;-56
2022/09/03 10:11:49;;;;;;;5.90;3.10;;;;;;;17.32;43.76;100220.00;109387;1273;23435;-56
2022/09/03 10:14:23;;;;;;;9.40;2.90;;;;;;;17.28;43.90;100221.92;109397;1273;22403;-58
2022/09/03 10:16:55;;;;;;;11.80;3.00;;;;;;;17.25;44.01;100222.31;109398;1274;22443;-58
2022/09/03 10:19:24;;;;;;;5.10;2.90;;;;;;;17.23;43.58;100224.69;109272;1274;22390;-58
2022/09/03 10:21:58;;;;;;;6.40;3.00;;;;;;;17.18;43.51;100227.08;109214;1274;138096;-57
2022/09/03 10:24:46;;;;;;;4.80;2.90;;;;;;;17.14;43.94;100225.48;109499;1274;22513;-58
2022/09/03 10:27:13;;;;;;;6.70;2.80;;;;;;;17.13;44.15;100224.21;109256;1274;138903;-57
2022/09/03 10:29:40;;;;;;;7.50;4.00;;;;;;;17.12;43.80;100218.75;109241;1274;22440;-58
2022/09/03 10:32:21;;;;;;;4.80;3.50;;;;;;;17.12;43.59;100217.49;109480;1273;23216;-57
2022/09/03 10:34:54;;;;;;;6.90;3.60;;;;;;;17.11;43.83;100216.23;109329;1274;137392;-55
2022/09/03 10:37:32;;;;;;;6.50;3.80;;;;;;;17.11;43.93;100208.58;109374;1274;22567;-57
2022/09/03 10:40:27;;;;;;;4.00;2.70;;;;;;;17.12;43.86;100207.09;109288;1273;138565;-57
2022/09/03 10:43:03;;;;;;;14.10;2.80;;;;;;;17.14;44.15;100208.02;109545;1273;22468;-57
2022/09/03 10:45:51;;;;;;;5.00;3.10;;;;;;;17.18;45.13;100212.60;109435;1273;137609;-57
2022/09/03 10:48:18;;;;;;;;;;;;;;;17.20;44.15;100204.15;109586;1272;22741;-57
2022/09/03 10:51:16;;;;;;;9.60;2.80;;;;;;;17.21;43.91;100200.52;109446;1273;125746;-57
2022/09/03 10:54:06;;;;;;;6.80;3.30;;;;;;;17.23;43.89;100198.42;108780;1280;22480;-58
2022/09/03 10:56:46;;;;;;;6.30;3.30;;;;;;;17.23;44.28;100200.28;108707;1280;138298;-58
2022/09/03 10:59:34;;;;;;;4.90;3.10;;;;;;;17.26;44.00;100201.88;108843;1280;22367;-58
2022/09/03 11:02:16;;;;;;;7.70;2.70;;;;;;;17.28;44.07;100203.56;108837;1280;22487;-57
2022/09/03 11:04:48;;;;;;;5.70;3.80;;;;;;;17.30;43.89;100206.70;108695;1280;138382;-57
2022/09/03 11:07:16;;;;;;;16.60;3.70;;;;;;;17.31;43.19;100200.44;108634;1281;22523;-56
2022/09/03 11:10:14;;;;;;;8.40;3.20;;;;;;;17.32;43.62;100199.00;108613;1281;138713;-57
2022/09/03 11:12:46;;;;;;;9.30;3.40;;;;;;;17.34;43.52;100194.98;108690;1281;23186;-58
2022/09/03 11:15:22;;;;;;;4.10;3.20;;;;;;;17.37;43.63;100190.88;108555;1281;137848;-58
2022/09/03 11:17:57;;;;;;;5.00;3.30;;;;;;;17.39;43.83;100184.65;108811;1280;22691;-57
2022/09/03 11:20:24;;;;;;;10.70;4.70;;;;;;;17.42;44.10;100184.30;108667;1281;23634;-57
2022/09/03 11:22:56;;;;;;;5.90;4.00;;;;;;;17.47;43.94;100177.96;108816;1280;22367;-57
2022/09/03 11:25:34;;;;;;;10.20;3.70;;;;;;;17.50;44.15;100180.09;108544;1281;22498;-57
2022/09/03 11:28:24;;;;;;;5.50;3.60;;;;;;;17.54;44.17;100176.81;108727;1281;139613;-57
2022/09/03 11:31:12;;;;;;;4.50;3.60;;;;;;;17.57;44.13;100176.30;109030;1274;23128;-56
2022/09/03 11:33:43;;;;;;;4.90;3.30;;;;;;;17.58;44.31;100173.31;109276;1274;138742;-56
2022/09/03 11:36:10;;;;;;;6.00;4.30;;;;;;;17.59;44.37;100174.08;109254;1274;23188;-56
2022/09/03 11:38:38;;;;;;;13.50;8.50;;;;;;;17.61;44.21;100177.08;109423;1273;138598;-58
2022/09/03 11:41:25;;;;;;;36.80;24.80;;;;;;;17.64;44.69;100181.10;109541;1273;23203;-57
2022/09/03 11:43:53;;;;;;;;;;;;;;;17.69;44.45;100170.00;109526;1273;22461;-58